Hlavní strana
METAR-TAF:

METAR-TAF

Letiště :

Saint-Denis, Réunion

zeměpisná šířka: 20-53S, zeměpisná délka: 055-31E, výška: 21 m

Aktuální stav počasí

Zpráva byla vytvořena před 19 minutami, v 22:00 UTC
Jižní vítr 6 kt
Teplota 22°C
Vlhkost vzduchu 88%
Tlak 1012 hPa
Viditelnost 10 km a více
Žádná oblačnost pod 1500 m, nevyskytují se cumulonimby.

METAR: FMEE 252200Z AUTO 18006KT CAVOK 22/20 Q1012 NOSIG

Čas: 02:19 (22:19 UTC)

Předpověď počasí

Zpráva byla vytvořena před 5 hodinami a 19 minutami, v 17:00 UTC
Předpověď platná od 25 v 18 UTC do 26 v 24 UTC
Jihojihozápadní vítr 6 kt
Viditelnost 10 km a více
Skoro jasno ve výšce 3000 ft
Změna
od 26 v 04 UTC do 26 v 06 UTC
Západní vítr 10 kt
Dočasný
od 26 v 07 UTC do 26 v 10 UTC
Severní vítr 8 kt
Změna
od 26 v 14 UTC do 26 v 16 UTC
Východojihovýchodní vítr 8 kt

TAF: FMEE 251700Z 2518/2624 20006KT 9999 FEW030 BECMG 2604/2606 28010KT TEMPO 2607/2610 35008KT BECMG 2614/2616 11008KT

Stav a předpovědi počasí z více než 4 000 letišť (zprávy METAR a TAF).

Červené a žluté tečky na mapě představují dostupné meteorologické stanice.

Když kurzor umístíte na tečku, zobrazí se název stanice.

Pak kliknutím zobrazíte stav a předpověď počasí.

Chcete-li změnit mapu, kliknutím na zelené tlačítko se znaménkem +mapu přiblížíte, kliknutím na zelené tlačítko se znaménkem – mapu oddálíte a kliknutím na zelené šipky přejdete na sousední mapy.


METAR-TAF: